Time;durP1;ratioP1;P1;durP2;ratioP2;P2;SDS_P1;SDS_P2;PMS_P1;PMS_P2;Temp;Humidity;BMP_temperature;BMP_pressure;BME280_temperature;BME280_humidity;BME280_pressure;Samples;Min_cycle;Max_cycle;Signal;HPM_P1;HPM_P2
2023/01/19 00:02:19;;;;;;;15.87;9.10;;;3.20;43.30;;;;;;5034870;28;20518;-49
2023/01/19 00:04:45;;;;;;;15.25;10.20;;;3.20;43.30;;;;;;5034642;28;20181;-50
2023/01/19 00:07:11;;;;;;;12.00;7.90;;;3.20;43.20;;;;;;5034857;28;20229;-49
2023/01/19 00:09:45;;;;;;;18.65;11.00;;;3.20;43.10;;;;;;5034970;28;20191;-50
2023/01/19 00:12:10;;;;;;;15.80;9.00;;;3.10;42.80;;;;;;5034751;28;20645;-49
2023/01/19 00:14:36;;;;;;;17.73;10.33;;;3.10;43.00;;;;;;5034422;28;20190;-49
2023/01/19 00:17:02;;;;;;;16.43;10.67;;;3.00;42.80;;;;;;5034911;28;20417;-50
2023/01/19 00:19:28;;;;;;;16.90;10.37;;;3.00;43.10;;;;;;5034550;28;20633;-49
2023/01/19 00:21:54;;;;;;;15.45;10.23;;;3.00;43.10;;;;;;5034656;28;20432;-50
2023/01/19 00:24:20;;;;;;;18.47;10.43;;;3.00;42.90;;;;;;5034572;28;20228;-50
2023/01/19 00:26:46;;;;;;;15.70;10.57;;;3.00;42.90;;;;;;5034356;28;20176;-50
2023/01/19 00:29:13;;;;;;;17.00;8.57;;;2.90;42.60;;;;;;5034427;28;20411;-49
2023/01/19 00:31:39;;;;;;;13.35;10.32;;;2.90;42.40;;;;;;5034020;28;20180;-50
2023/01/19 00:34:05;;;;;;;14.70;9.63;;;2.80;42.20;;;;;;5034300;28;20291;-49
2023/01/19 00:36:32;;;;;;;14.82;9.07;;;2.80;42.40;;;;;;5034101;28;20484;-50
2023/01/19 00:38:57;;;;;;;15.40;8.82;;;2.70;42.40;;;;;;5034326;28;20188;-50
2023/01/19 00:44:10;;;;;;;13.52;8.88;;;2.70;42.50;;;;;;5003015;28;20224;-50
2023/01/19 00:46:37;;;;;;;17.73;10.82;;;2.60;42.40;;;;;;5034049;28;20652;-49
2023/01/19 00:49:03;;;;;;;15.10;10.70;;;2.60;42.10;;;;;;5034026;28;20177;-49
2023/01/19 00:51:29;;;;;;;14.82;10.10;;;2.60;42.50;;;;;;5034212;28;20207;-49
2023/01/19 00:53:55;;;;;;;14.57;10.40;;;2.50;42.60;;;;;;5034213;28;20198;-50
2023/01/19 00:56:21;;;;;;;21.07;11.90;;;2.50;42.70;;;;;;5033751;28;20400;-50
2023/01/19 00:58:46;;;;;;;14.77;9.20;;;2.50;42.60;;;;;;5034157;28;20173;-49
2023/01/19 01:01:12;;;;;;;15.50;9.63;;;2.50;43.30;;;;;;5033794;28;20234;-49
2023/01/19 01:03:38;;;;;;;17.20;10.68;;;2.50;42.60;;;;;;5033655;28;20192;-49
2023/01/19 01:06:07;;;;;;;21.00;10.77;;;2.50;42.30;;;;;;5033602;28;20180;-49
2023/01/19 01:08:33;;;;;;;19.90;10.00;;;2.40;42.10;;;;;;5033972;28;20262;-49
2023/01/19 01:10:59;;;;;;;19.23;10.95;;;2.40;42.70;;;;;;5033645;28;20590;-50
2023/01/19 01:13:25;;;;;;;14.40;10.30;;;2.40;42.60;;;;;;5033672;28;20682;-49
2023/01/19 01:15:52;;;;;;;14.70;10.52;;;2.40;42.30;;;;;;5033614;28;20461;-50
2023/01/19 01:18:19;;;;;;;15.15;9.75;;;2.40;42.40;;;;;;5033428;28;20174;-50
2023/01/19 01:20:44;;;;;;;17.02;10.02;;;2.30;42.30;;;;;;5033500;28;20699;-49
2023/01/19 01:23:11;;;;;;;13.37;9.63;;;2.30;42.50;;;;;;5033392;28;20272;-50
2023/01/19 01:25:37;;;;;;;12.55;8.95;;;2.30;42.50;;;;;;5033150;28;20200;-50
2023/01/19 01:28:07;;;;;;;13.43;9.40;;;2.20;42.20;;;;;;5032014;28;20233;-50
2023/01/19 01:30:39;;;;;;;12.40;9.25;;;2.20;42.20;;;;;;5033253;28;20662;-49
2023/01/19 01:33:07;;;;;;;14.05;10.60;;;2.30;42.00;;;;;;5033213;28;20609;-50
2023/01/19 01:35:32;;;;;;;13.90;10.05;;;2.20;42.00;;;;;;5033030;28;20751;-49
2023/01/19 01:37:59;;;;;;;17.67;11.63;;;2.20;42.10;;;;;;5033249;28;20173;-49
2023/01/19 01:40:25;;;;;;;12.15;8.63;;;2.10;41.90;;;;;;5033086;28;20180;-50
2023/01/19 01:42:51;;;;;;;13.38;9.07;;;2.10;41.80;;;;;;5031925;28;20294;-49
2023/01/19 01:45:26;;;;;;;14.70;9.70;;;2.10;41.80;;;;;;5032679;28;20258;-49
2023/01/19 01:47:54;;;;;;;11.57;8.98;;;2.10;41.70;;;;;;5032908;28;20411;-49
2023/01/19 01:50:22;;;;;;;13.05;9.40;;;2.00;41.70;;;;;;5032797;28;20282;-49
2023/01/19 01:53:07;;;;;;;15.40;9.13;;;2.00;41.60;;;;;;5032835;28;20184;-49
2023/01/19 01:55:36;;;;;;;18.40;10.02;;;1.90;41.60;;;;;;5032706;28;20200;-50
2023/01/19 01:58:04;;;;;;;16.65;10.10;;;1.90;41.80;;;;;;5032694;28;20233;-49
2023/01/19 02:03:22;;;;;;;16.70;9.68;;;1.80;41.50;;;;;;4995307;28;20680;-49
2023/01/19 02:05:48;;;;;;;15.73;10.52;;;1.80;41.50;;;;;;5031326;28;20187;-49
2023/01/19 02:13:49;;;;;;;15.75;8.82;;;1.70;41.00;;;;;;5032721;28;20202;-49
2023/01/19 02:16:16;;;;;;;14.02;8.77;;;1.60;41.10;;;;;;5032375;28;20175;-49
2023/01/19 02:18:44;;;;;;;13.40;9.43;;;1.60;41.20;;;;;;5032401;28;20171;-50
2023/01/19 02:21:29;;;;;;;14.00;10.23;;;1.60;41.50;;;;;;5032742;28;20189;-49
2023/01/19 02:23:57;;;;;;;22.35;10.38;;;1.60;41.20;;;;;;5032297;28;20262;-50
2023/01/19 02:26:26;;;;;;;12.75;7.75;;;1.50;41.40;;;;;;5032143;28;20637;-50
2023/01/19 02:28:56;;;;;;;22.15;9.35;;;1.50;41.30;;;;;;5032286;28;20182;-50
2023/01/19 02:31:23;;;;;;;14.82;8.35;;;1.50;41.20;;;;;;5032417;28;20192;-50
2023/01/19 02:33:49;;;;;;;14.35;7.97;;;1.50;41.40;;;;;;5032200;28;20557;-50
2023/01/19 02:36:16;;;;;;;14.02;9.20;;;1.40;41.10;;;;;;5032019;28;20267;-50
2023/01/19 02:38:45;;;;;;;14.90;9.25;;;1.40;40.90;;;;;;5032522;28;20180;-51
2023/01/19 02:41:15;;;;;;;12.88;7.10;;;1.30;41.00;;;;;;5032275;28;20181;-51
2023/01/19 02:43:42;;;;;;;12.43;8.68;;;1.30;41.10;;;;;;5031854;28;20208;-50
2023/01/19 02:46:08;;;;;;;21.45;10.63;;;1.30;41.10;;;;;;5032119;28;20179;-49
2023/01/19 02:48:33;;;;;;;11.45;8.05;;;1.30;41.20;;;;;;5032107;28;20595;-50
2023/01/19 02:51:03;;;;;;;16.70;10.13;;;1.30;40.90;;;;;;5032345;28;20203;-50
2023/01/19 02:53:56;;;;;;;17.02;10.35;;;1.20;40.70;;;;;;5032766;28;20430;-50
2023/01/19 02:56:38;;;;;;;12.88;7.95;;;1.20;40.70;;;;;;5038703;28;20176;-51
2023/01/19 02:59:28;;;;;;;11.45;7.68;;;1.10;40.90;;;;;;5038992;28;20162;-51
2023/01/19 03:02:00;;;;;;;15.45;7.85;;;1.10;40.60;;;;;;5038732;28;20262;-49
2023/01/19 03:04:59;;;;;;;16.30;9.80;;;1.10;40.60;;;;;;5038384;28;20204;-50
2023/01/19 03:08:02;;;;;;;12.27;7.78;;;1.10;40.40;;;;;;5039072;28;20159;-50
2023/01/19 03:10:40;;;;;;;16.00;9.98;;;1.00;40.30;;;;;;5038421;28;20198;-50
2023/01/19 03:13:29;;;;;;;13.05;8.30;;;0.90;40.60;;;;;;5039100;28;20268;-50
2023/01/19 03:16:04;;;;;;;14.88;8.30;;;0.90;40.70;;;;;;5038320;28;20440;-49
2023/01/19 03:18:32;;;;;;;10.13;8.20;;;0.90;40.70;;;;;;5038495;28;20161;-51
2023/01/19 03:21:02;;;;;;;18.52;9.98;;;0.80;40.50;;;;;;5038691;28;20228;-49
2023/01/19 03:23:31;;;;;;;10.50;7.60;;;0.80;40.60;;;;;;5038725;28;20213;-50
2023/01/19 03:25:59;;;;;;;10.25;7.75;;;0.80;40.30;;;;;;5038220;28;20166;-50
2023/01/19 03:28:28;;;;;;;11.63;8.68;;;0.80;40.40;;;;;;5039534;28;20266;-50
2023/01/19 03:31:13;;;;;;;11.65;7.15;;;0.80;40.40;;;;;;5040062;28;20199;-50
2023/01/19 03:33:43;;;;;;;14.23;8.75;;;0.80;40.00;;;;;;5038755;28;20194;-50
2023/01/19 03:36:35;;;;;;;11.80;8.75;;;0.70;40.30;;;;;;5038029;28;20166;-50
2023/01/19 03:39:04;;;;;;;14.40;7.78;;;0.70;40.10;;;;;;5047986;23;20172;-48
2023/01/19 03:41:33;;;;;;;12.18;7.93;;;0.60;40.10;;;;;;5031248;28;20715;-48
2023/01/19 03:44:00;;;;;;;16.30;8.85;;;0.60;40.30;;;;;;5038212;28;20226;-49
2023/01/19 03:46:26;;;;;;;14.20;8.48;;;0.60;40.40;;;;;;5037962;28;20178;-48
2023/01/19 03:48:53;;;;;;;9.98;7.95;;;0.60;40.60;;;;;;5038095;28;20171;-48
2023/01/19 03:51:20;;;;;;;12.43;8.10;;;0.70;40.80;;;;;;5037940;28;20701;-49
2023/01/19 03:53:48;;;;;;;15.32;8.07;;;0.70;40.70;;;;;;5038173;28;20185;-48
2023/01/19 03:56:23;;;;;;;11.93;7.43;;;0.80;40.80;;;;;;5037854;28;20168;-48
2023/01/19 03:58:49;;;;;;;16.40;8.50;;;0.80;40.80;;;;;;5038081;28;20268;-49
2023/01/19 04:01:15;;;;;;;12.30;7.63;;;0.70;40.60;;;;;;5038017;28;20664;-48
2023/01/19 04:03:42;;;;;;;13.30;8.45;;;0.80;40.70;;;;;;5038036;28;20439;-47
2023/01/19 04:06:09;;;;;;;10.10;7.38;;;0.70;40.10;;;;;;5034921;28;20179;-48
2023/01/19 04:08:35;;;;;;;12.32;8.30;;;0.70;40.00;;;;;;5035109;28;20174;-48
2023/01/19 04:11:01;;;;;;;13.80;7.63;;;0.60;39.50;;;;;;5034947;28;20221;-49
2023/01/19 04:13:28;;;;;;;13.10;9.03;;;0.50;39.90;;;;;;5034908;28;20515;-48
2023/01/19 04:15:58;;;;;;;13.93;8.55;;;0.50;39.90;;;;;;5034763;28;20409;-48
2023/01/19 04:18:23;;;;;;;13.27;7.80;;;0.40;39.80;;;;;;5034591;28;20200;-48
2023/01/19 04:20:49;;;;;;;14.70;7.10;;;0.40;40.10;;;;;;5034628;28;20274;-48
2023/01/19 04:23:15;;;;;;;26.40;8.90;;;0.40;40.40;;;;;;5034759;28;20170;-48
2023/01/19 04:25:41;;;;;;;10.70;7.47;;;0.50;40.50;;;;;;5034392;28;20196;-47
2023/01/19 04:28:06;;;;;;;12.80;7.97;;;0.50;40.40;;;;;;5034678;28;20182;-48
2023/01/19 04:30:32;;;;;;;10.50;7.53;;;0.40;40.60;;;;;;5034363;28;20198;-47
2023/01/19 04:32:58;;;;;;;10.65;7.20;;;0.40;39.90;;;;;;5034406;28;20174;-47
2023/01/19 04:35:24;;;;;;;13.20;7.78;;;0.40;40.00;;;;;;5034167;28;20182;-47
2023/01/19 04:37:50;;;;;;;10.40;8.10;;;0.40;40.00;;;;;;5034287;28;20182;-48
2023/01/19 04:40:16;;;;;;;13.45;8.65;;;0.40;39.90;;;;;;5034202;28;20209;-49
2023/01/19 04:42:44;;;;;;;12.63;8.20;;;0.30;40.00;;;;;;5034247;28;20239;-47
2023/01/19 04:45:10;;;;;;;11.40;7.60;;;0.30;40.10;;;;;;5033999;28;20178;-48
2023/01/19 04:47:36;;;;;;;11.55;7.97;;;0.30;40.10;;;;;;5034009;28;20226;-47
2023/01/19 04:50:04;;;;;;;12.10;7.60;;;0.30;40.00;;;;;;5034246;28;20233;-49
2023/01/19 04:52:34;;;;;;;11.57;6.70;;;0.20;39.70;;;;;;5034253;28;20178;-49
2023/01/19 04:55:04;;;;;;;14.68;8.18;;;0.20;40.00;;;;;;5033816;28;20823;-49
2023/01/19 04:57:31;;;;;;;18.77;8.23;;;0.20;40.20;;;;;;5033863;28;20178;-48
2023/01/19 04:59:57;;;;;;;11.73;8.85;;;0.20;40.40;;;;;;5033794;28;20205;-48
2023/01/19 05:02:24;;;;;;;11.07;6.43;;;0.20;40.30;;;;;;5033745;28;20655;-49
2023/01/19 05:04:50;;;;;;;13.10;8.52;;;0.20;39.80;;;;;;5033815;28;20183;-49
2023/01/19 05:07:16;;;;;;;16.45;9.20;;;0.20;40.00;;;;;;5033816;28;20166;-49
2023/01/19 05:09:42;;;;;;;17.27;10.10;;;0.20;40.10;;;;;;5033569;28;20189;-48
2023/01/19 05:12:07;;;;;;;11.70;8.10;;;0.20;40.30;;;;;;5033702;28;20410;-49
2023/01/19 05:14:33;;;;;;;12.33;8.63;;;0.20;39.70;;;;;;5033390;28;20216;-49
2023/01/19 05:17:00;;;;;;;14.73;9.70;;;0.20;39.90;;;;;;5033360;28;20266;-49
2023/01/19 05:19:26;;;;;;;17.95;8.75;;;0.20;39.90;;;;;;5033670;28;20491;-49
2023/01/19 05:21:53;;;;;;;10.80;7.60;;;0.10;39.50;;;;;;5033455;28;20166;-49
2023/01/19 05:24:19;;;;;;;13.73;8.45;;;0.10;39.70;;;;;;5033294;28;20241;-49
2023/01/19 05:26:45;;;;;;;12.70;6.95;;;0.10;39.80;;;;;;5033283;28;20177;-48
2023/01/19 05:29:11;;;;;;;11.07;7.95;;;0.10;39.90;;;;;;5033244;28;20178;-49
2023/01/19 05:31:37;;;;;;;19.50;9.70;;;0.10;39.70;;;;;;5033387;28;20557;-49
2023/01/19 05:34:03;;;;;;;10.27;7.90;;;0.00;39.60;;;;;;5033118;28;20166;-49
2023/01/19 05:36:29;;;;;;;12.95;8.63;;;0.10;39.90;;;;;;5033019;28;20433;-49
2023/01/19 05:38:55;;;;;;;13.73;8.27;;;0.10;39.80;;;;;;5033153;28;20640;-49
2023/01/19 05:41:21;;;;;;;12.52;9.13;;;0.00;39.60;;;;;;5033058;28;20444;-49
2023/01/19 05:43:47;;;;;;;14.60;9.10;;;0.00;39.40;;;;;;5032965;28;20189;-49
2023/01/19 05:46:14;;;;;;;11.80;7.03;;;0.00;39.40;;;;;;5032906;28;20467;-49
2023/01/19 05:48:40;;;;;;;13.02;8.15;;;-0.10;39.50;;;;;;5033041;28;20166;-49
2023/01/19 05:51:06;;;;;;;11.97;7.20;;;-0.10;39.50;;;;;;5032712;28;20612;-49
2023/01/19 05:53:32;;;;;;;12.52;7.57;;;-0.10;39.70;;;;;;5032924;28;20178;-49
2023/01/19 05:55:59;;;;;;;13.03;8.10;;;-0.10;39.70;;;;;;5032612;28;20570;-49
2023/01/19 05:58:25;;;;;;;13.43;8.25;;;-0.10;39.90;;;;;;5032658;28;20190;-49
2023/01/19 06:00:51;;;;;;;13.80;9.00;;;-0.10;39.80;;;;;;5032678;28;20221;-50
2023/01/19 06:03:17;;;;;;;13.20;8.13;;;-0.10;39.70;;;;;;5032734;28;20170;-49
2023/01/19 06:05:43;;;;;;;12.70;7.32;;;-0.10;39.30;;;;;;5032578;28;20632;-49
2023/01/19 06:08:08;;;;;;;11.33;7.77;;;-0.10;38.70;;;;;;5032658;28;20186;-49
2023/01/19 06:10:34;;;;;;;12.00;7.93;;;-0.20;38.90;;;;;;5032434;28;20554;-49
2023/01/19 06:13:00;;;;;;;11.47;8.20;;;-0.20;39.00;;;;;;5032438;28;20188;-49
2023/01/19 06:15:25;;;;;;;14.23;8.60;;;-0.30;39.30;;;;;;5032486;28;20173;-50
2023/01/19 06:17:51;;;;;;;14.63;10.20;;;-0.30;39.50;;;;;;5032435;28;20289;-49
2023/01/19 06:20:17;;;;;;;17.83;9.77;;;-0.30;39.80;;;;;;5032309;28;20224;-50
2023/01/19 06:22:43;;;;;;;16.87;9.23;;;-0.30;39.20;;;;;;5032481;28;20261;-49
2023/01/19 06:25:09;;;;;;;16.05;10.23;;;-0.30;39.30;;;;;;5032196;28;20409;-49
2023/01/19 06:27:35;;;;;;;15.45;9.85;;;-0.30;39.30;;;;;;5032245;28;20515;-49
2023/01/19 06:30:01;;;;;;;15.27;10.18;;;-0.40;39.00;;;;;;5031859;28;20256;-49
2023/01/19 06:32:27;;;;;;;13.65;8.15;;;-0.30;39.40;;;;;;5032459;28;20257;-49
2023/01/19 06:34:53;;;;;;;13.70;8.20;;;-0.30;39.40;;;;;;5032053;28;20293;-49
2023/01/19 06:37:18;;;;;;;12.83;7.33;;;-0.30;39.80;;;;;;5032074;28;20170;-49
2023/01/19 06:39:44;;;;;;;9.80;6.73;;;-0.30;40.60;;;;;;5031965;28;20208;-49
2023/01/19 06:42:10;;;;;;;13.97;7.47;;;-0.30;40.70;;;;;;5031987;28;20185;-49
2023/01/19 06:44:36;;;;;;;12.15;6.63;;;-0.30;40.90;;;;;;5031840;28;20405;-48
2023/01/19 06:47:02;;;;;;;10.40;7.37;;;-0.20;41.30;;;;;;5032251;28;20174;-49
2023/01/19 06:49:27;;;;;;;15.27;7.63;;;-0.20;42.00;;;;;;5031965;28;20182;-49
2023/01/19 06:51:53;;;;;;;11.60;8.83;;;-0.10;42.00;;;;;;5031909;28;20424;-49
2023/01/19 06:54:19;;;;;;;13.83;8.97;;;0.00;41.70;;;;;;5032134;28;20178;-49
2023/01/19 06:56:44;;;;;;;13.23;8.00;;;0.10;41.50;;;;;;5031713;28;20181;-49
2023/01/19 06:59:10;;;;;;;10.20;7.70;;;0.10;41.50;;;;;;5031847;28;20274;-48
2023/01/19 07:01:36;;;;;;;10.43;7.33;;;0.20;41.40;;;;;;5032125;28;20198;-49
2023/01/19 07:04:01;;;;;;;14.77;10.47;;;0.20;41.20;;;;;;5032051;28;20324;-49
2023/01/19 07:06:27;;;;;;;14.43;9.77;;;0.20;41.10;;;;;;5031671;28;20178;-49
2023/01/19 07:08:53;;;;;;;13.83;8.60;;;0.30;41.20;;;;;;5031808;28;20210;-48
2023/01/19 07:11:19;;;;;;;12.82;8.40;;;0.30;41.10;;;;;;5031593;28;20201;-49
2023/01/19 07:13:50;;;;;;;13.17;8.57;;;0.30;41.00;;;;;;5031977;28;20677;-49
2023/01/19 07:16:16;;;;;;;15.68;9.48;;;0.40;40.90;;;;;;5031756;28;20435;-49
2023/01/19 07:18:42;;;;;;;9.40;7.55;;;0.40;40.80;;;;;;5032090;28;20178;-49
2023/01/19 07:21:08;;;;;;;15.07;8.70;;;0.40;40.80;;;;;;5031937;28;20196;-50
2023/01/19 07:23:34;;;;;;;10.55;7.47;;;0.40;41.30;;;;;;5031759;28;20205;-49
2023/01/19 07:26:00;;;;;;;16.90;9.33;;;0.50;41.20;;;;;;5031360;28;20275;-48
2023/01/19 07:28:27;;;;;;;14.48;7.03;;;0.50;41.00;;;;;;5031600;28;20494;-49
2023/01/19 07:30:54;;;;;;;17.75;8.73;;;0.60;40.80;;;;;;5031443;28;20208;-48
2023/01/19 07:33:21;;;;;;;25.48;9.48;;;0.60;40.90;;;;;;5031830;28;20217;-49
2023/01/19 07:35:48;;;;;;;18.55;9.27;;;0.70;41.00;;;;;;5031445;28;20181;-49
2023/01/19 07:38:15;;;;;;;11.80;8.27;;;0.70;41.00;;;;;;5031589;28;20249;-48
2023/01/19 07:40:41;;;;;;;13.00;8.80;;;0.90;41.10;;;;;;5031614;28;20211;-49
2023/01/19 07:43:07;;;;;;;14.18;6.75;;;1.00;41.20;;;;;;5035327;28;20224;-49
2023/01/19 07:45:34;;;;;;;11.68;8.75;;;1.10;41.10;;;;;;5034972;28;20283;-50
2023/01/19 07:48:01;;;;;;;12.95;10.10;;;1.20;40.90;;;;;;5035214;28;20181;-49
2023/01/19 07:50:28;;;;;;;18.98;10.32;;;1.40;40.60;;;;;;5035089;28;20211;-48
2023/01/19 07:52:54;;;;;;;18.80;9.98;;;1.40;40.50;;;;;;5035438;28;20181;-49
2023/01/19 07:55:22;;;;;;;15.77;8.43;;;1.60;40.40;;;;;;5035096;28;20185;-49
2023/01/19 07:57:51;;;;;;;12.65;8.23;;;1.90;40.50;;;;;;5035028;28;20292;-49
2023/01/19 08:00:23;;;;;;;13.43;8.73;;;2.20;40.30;;;;;;5034897;28;20198;-50
2023/01/19 08:02:51;;;;;;;15.23;9.50;;;2.50;39.90;;;;;;5034944;28;20577;-49
2023/01/19 08:05:18;;;;;;;15.57;8.57;;;2.60;39.30;;;;;;5034918;28;20188;-49
2023/01/19 08:07:45;;;;;;;11.38;7.72;;;2.70;39.20;;;;;;5034861;28;20177;-49
2023/01/19 08:10:14;;;;;;;13.02;9.43;;;2.80;39.20;;;;;;5034824;28;20231;-49
2023/01/19 08:12:41;;;;;;;12.95;9.65;;;3.00;39.40;;;;;;5034733;28;20195;-49
2023/01/19 08:15:08;;;;;;;12.35;8.20;;;3.20;39.40;;;;;;5034494;28;20679;-50
2023/01/19 08:17:34;;;;;;;10.88;7.53;;;3.60;39.50;;;;;;5034669;28;20173;-49
2023/01/19 08:19:59;;;;;;;16.93;7.80;;;4.10;39.10;;;;;;5034599;28;20204;-49
2023/01/19 08:22:25;;;;;;;14.93;6.47;;;4.60;38.60;;;;;;5034558;28;20821;-50
2023/01/19 08:24:51;;;;;;;10.97;7.73;;;5.00;37.90;;;;;;5034309;28;20170;-50
2023/01/19 08:27:18;;;;;;;9.13;7.05;;;5.30;37.60;;;;;;5034364;28;20408;-50
2023/01/19 08:29:44;;;;;;;10.52;7.88;;;5.50;35.10;;;;;;5034301;28;20295;-50
2023/01/19 08:32:10;;;;;;;9.17;7.00;;;5.60;35.30;;;;;;5034486;28;20261;-50
2023/01/19 08:34:35;;;;;;;10.60;6.90;;;5.60;35.10;;;;;;5034131;28;21069;-50
2023/01/19 08:37:01;;;;;;;10.30;7.57;;;5.60;34.70;;;;;;5034446;28;20169;-50
2023/01/19 08:39:27;;;;;;;10.50;6.93;;;5.60;34.10;;;;;;5034133;28;20202;-50
2023/01/19 08:41:53;;;;;;;9.27;6.10;;;5.50;34.30;;;;;;5034535;28;20231;-50
2023/01/19 08:44:19;;;;;;;10.10;6.87;;;5.60;34.30;;;;;;5034023;28;20228;-50
2023/01/19 08:46:46;;;;;;;11.90;8.50;;;5.80;34.50;;;;;;5034041;28;20174;-49
2023/01/19 08:49:11;;;;;;;9.02;7.13;;;6.00;33.60;;;;;;5034000;28;20573;-49
2023/01/19 08:51:37;;;;;;;11.80;7.37;;;6.20;33.60;;;;;;5033658;28;20687;-50
2023/01/19 08:54:03;;;;;;;10.43;7.20;;;6.40;33.40;;;;;;5033911;28;20248;-50
2023/01/19 08:56:29;;;;;;;7.85;6.97;;;6.50;33.10;;;;;;5033667;28;20410;-50
2023/01/19 08:58:55;;;;;;;11.37;7.10;;;6.70;33.80;;;;;;5034027;28;20174;-50
2023/01/19 09:01:21;;;;;;;8.83;6.50;;;6.90;33.80;;;;;;5033942;28;20185;-49
2023/01/19 09:03:47;;;;;;;7.83;6.70;;;7.30;33.70;;;;;;5034043;28;20658;-50
2023/01/19 09:06:18;;;;;;;9.25;7.00;;;7.70;33.50;;;;;;5033799;28;20416;-49
2023/01/19 09:08:45;;;;;;;9.73;6.47;;;8.00;32.90;;;;;;5033922;28;20167;-50
2023/01/19 09:11:13;;;;;;;9.88;6.80;;;8.50;32.40;;;;;;5033648;28;20225;-50
2023/01/19 09:13:40;;;;;;;10.63;6.20;;;9.10;31.70;;;;;;5033674;28;20240;-50
2023/01/19 09:16:07;;;;;;;9.25;6.90;;;9.50;31.40;;;;;;5033435;28;20249;-50
2023/01/19 09:18:34;;;;;;;7.93;5.30;;;9.90;30.30;;;;;;5033555;28;20252;-50
2023/01/19 09:21:00;;;;;;;8.98;6.38;;;10.00;29.80;;;;;;5033644;28;20202;-50
2023/01/19 09:23:27;;;;;;;8.98;6.07;;;9.90;28.90;;;;;;5033432;28;20649;-50
2023/01/19 09:25:58;;;;;;;6.85;5.55;;;9.70;28.80;;;;;;5033351;28;20193;-51
2023/01/19 09:28:25;;;;;;;8.32;5.70;;;9.40;29.30;;;;;;5033624;28;20531;-51
2023/01/19 09:30:50;;;;;;;9.90;6.05;;;9.00;29.80;;;;;;5033151;28;20198;-50
2023/01/19 09:33:17;;;;;;;8.07;5.03;;;8.80;30.20;;;;;;5033462;28;20261;-50
2023/01/19 09:35:45;;;;;;;8.75;5.78;;;8.50;31.00;;;;;;5033116;28;20177;-50
2023/01/19 09:38:11;;;;;;;8.98;6.63;;;8.20;31.90;;;;;;5033216;28;20197;-50
2023/01/19 09:40:42;;;;;;;8.40;5.75;;;8.00;32.40;;;;;;5033028;28;20247;-51
2023/01/19 09:43:16;;;;;;;7.38;5.75;;;7.90;32.60;;;;;;5033166;28;20189;-51
2023/01/19 09:45:50;;;;;;;10.35;6.22;;;7.80;32.80;;;;;;5032777;28;20185;-50
2023/01/19 09:48:41;;;;;;;9.63;6.47;;;7.70;33.30;;;;;;5032957;28;20173;-50
2023/01/19 09:51:14;;;;;;;10.85;5.63;;;7.70;33.80;;;;;;5032851;28;20214;-51
2023/01/19 09:53:49;;;;;;;8.73;6.70;;;7.70;33.60;;;;;;5031753;28;20166;-50
2023/01/19 09:56:18;;;;;;;6.90;4.82;;;7.70;33.60;;;;;;5032962;28;20161;-51
2023/01/19 09:58:45;;;;;;;8.38;5.07;;;7.80;33.40;;;;;;5032674;28;20193;-50
2023/01/19 10:01:30;;;;;;;7.25;5.00;;;8.20;33.40;;;;;;5032828;28;20186;-51
2023/01/19 10:04:19;;;;;;;8.13;6.32;;;8.70;32.30;;;;;;5031934;28;20512;-49
2023/01/19 10:06:45;;;;;;;11.80;7.13;;;9.20;31.60;;;;;;5029379;28;20244;-51
2023/01/19 10:09:32;;;;;;;8.13;5.60;;;9.30;31.90;;;;;;5032505;28;20202;-52
2023/01/19 10:12:34;;;;;;;14.90;6.35;;;9.70;32.70;;;;;;5032571;28;20673;-50
2023/01/19 10:15:03;;;;;;;14.23;9.55;;;9.10;32.70;;;;;;5020100;28;20209;-51
2023/01/19 10:17:48;;;;;;;23.92;16.33;;;9.20;32.80;;;;;;5032483;28;20245;-52
2023/01/19 10:20:33;;;;;;;9.70;6.38;;;9.80;32.50;;;;;;5032405;28;20190;-52
2023/01/19 10:23:00;;;;;;;7.38;5.57;;;10.50;31.00;;;;;;5032414;28;20646;-52
2023/01/19 10:25:26;;;;;;;5.82;4.82;;;10.90;29.70;;;;;;5031899;28;20539;-50
2023/01/19 10:27:52;;;;;;;7.82;5.25;;;11.20;29.60;;;;;;5032540;28;20178;-51
2023/01/19 10:30:22;;;;;;;7.53;4.90;;;11.20;28.40;;;;;;5032172;28;20244;-52
2023/01/19 10:32:49;;;;;;;6.82;5.10;;;11.10;29.80;;;;;;5032312;28;20718;-52
2023/01/19 10:35:20;;;;;;;9.75;6.03;;;11.40;29.80;;;;;;5031980;28;20700;-51
2023/01/19 10:37:47;;;;;;;8.55;5.05;;;11.90;28.60;;;;;;5032167;28;20803;-52
2023/01/19 10:40:26;;;;;;;8.65;5.97;;;12.00;28.30;;;;;;5031952;28;20216;-49
2023/01/19 10:42:54;;;;;;;6.95;5.10;;;12.10;28.80;;;;;;5032457;28;20193;-51
2023/01/19 10:45:29;;;;;;;6.70;4.60;;;12.10;28.70;;;;;;5031916;28;20664;-51
2023/01/19 10:47:58;;;;;;;9.52;6.97;;;12.30;28.20;;;;;;5031995;28;20584;-50
2023/01/19 10:50:28;;;;;;;6.03;4.90;;;12.50;28.90;;;;;;5031821;28;20666;-51
2023/01/19 10:52:56;;;;;;;8.23;5.45;;;12.90;27.50;;;;;;5032349;28;20207;-52
2023/01/19 10:55:26;;;;;;;8.63;6.00;;;13.20;26.40;;;;;;5031791;28;20650;-52
2023/01/19 10:57:52;;;;;;;7.30;4.85;;;13.40;26.90;;;;;;5032256;28;20286;-52
2023/01/19 11:00:36;;;;;;;7.72;4.90;;;13.60;26.10;;;;;;5032148;28;20194;-52
2023/01/19 11:03:22;;;;;;;8.43;5.80;;;13.80;26.60;;;;;;5032242;28;20173;-52
2023/01/19 11:05:48;;;;;;;6.28;5.05;;;14.00;25.30;;;;;;5031726;28;20642;-52
2023/01/19 11:08:30;;;;;;;7.73;6.43;;;14.00;26.30;;;;;;5031873;28;20178;-51
2023/01/19 11:11:03;;;;;;;8.10;6.05;;;13.60;25.50;;;;;;5031969;28;20214;-51
2023/01/19 11:13:29;;;;;;;5.53;4.63;;;13.40;25.60;;;;;;5032085;28;20178;-51
2023/01/19 11:16:02;;;;;;;6.30;4.97;;;13.40;26.50;;;;;;5034011;28;20180;-50
2023/01/19 11:18:37;;;;;;;6.05;5.18;;;13.30;26.20;;;;;;5035930;28;20185;-51
2023/01/19 11:21:07;;;;;;;8.98;6.28;;;13.10;26.50;;;;;;5035967;28;20197;-51
2023/01/19 11:23:42;;;;;;;7.57;5.88;;;12.80;25.70;;;;;;5035594;28;20641;-51
2023/01/19 11:26:15;;;;;;;9.57;7.07;;;12.50;25.20;;;;;;5035486;28;20185;-51
2023/01/19 11:28:48;;;;;;;10.57;5.47;;;12.20;27.70;;;;;;5035648;28;20162;-51
2023/01/19 11:31:13;;;;;;;8.27;6.75;;;12.00;27.60;;;;;;5035529;28;20281;-51
2023/01/19 11:33:46;;;;;;;7.00;5.80;;;11.70;26.40;;;;;;5035557;28;20245;-51
2023/01/19 11:36:19;;;;;;;6.45;5.15;;;11.50;27.90;;;;;;5035254;28;20184;-51
2023/01/19 11:38:49;;;;;;;9.73;6.65;;;11.30;28.60;;;;;;5035364;28;20677;-50
2023/01/19 11:41:20;;;;;;;6.60;5.25;;;11.20;29.00;;;;;;5035254;28;20192;-50
2023/01/19 11:43:52;;;;;;;8.52;5.95;;;11.00;28.80;;;;;;5035405;28;20178;-51
2023/01/19 11:46:18;;;;;;;8.52;5.13;;;10.90;29.30;;;;;;5035048;28;20228;-50
2023/01/19 11:49:00;;;;;;;5.47;4.80;;;10.80;28.80;;;;;;5035404;28;20223;-50
2023/01/19 11:51:42;;;;;;;5.93;4.70;;;10.80;28.60;;;;;;5035169;28;20209;-51
2023/01/19 11:54:20;;;;;;;7.35;5.30;;;11.00;28.80;;;;;;5035163;28;20170;-51
2023/01/19 11:56:50;;;;;;;8.48;5.40;;;11.10;28.40;;;;;;5034989;28;20173;-50
2023/01/19 11:59:17;;;;;;;6.85;4.63;;;11.10;28.00;;;;;;5035217;28;20212;-51
2023/01/19 12:02:09;;;;;;;5.60;4.20;;;11.10;28.60;;;;;;5035055;28;20170;-52
2023/01/19 12:04:38;;;;;;;9.18;4.53;;;11.30;28.50;;;;;;5034818;28;20216;-52
2023/01/19 12:07:09;;;;;;;5.78;4.05;;;11.70;29.00;;;;;;5035184;28;20197;-51
2023/01/19 12:09:51;;;;;;;5.68;4.28;;;12.10;28.00;;;;;;5034888;28;20205;-52
2023/01/19 12:12:30;;;;;;;8.85;4.28;;;12.60;25.20;;;;;;5034775;28;20190;-52
2023/01/19 12:15:07;;;;;;;6.97;3.78;;;12.90;25.20;;;;;;5034623;28;20173;-52
2023/01/19 12:17:39;;;;;;;8.25;4.35;;;12.90;25.70;;;;;;5034707;28;20248;-52
2023/01/19 12:20:05;;;;;;;8.30;4.28;;;12.80;25.60;;;;;;5034860;28;20558;-51
2023/01/19 12:22:43;;;;;;;4.30;3.80;;;12.80;24.10;;;;;;5034661;28;20642;-51
2023/01/19 12:25:23;;;;;;;5.75;3.60;;;12.50;24.60;;;;;;5034383;28;20399;-51
2023/01/19 12:27:50;;;;;;;6.45;5.38;;;12.30;24.40;;;;;;5033758;28;20695;-52
2023/01/19 12:30:25;;;;;;;5.57;4.55;;;12.20;26.10;;;;;;5034250;28;20205;-52
2023/01/19 12:32:51;;;;;;;7.00;4.28;;;12.40;25.70;;;;;;5034404;28;20192;-51
2023/01/19 12:35:55;;;;;;;5.70;4.67;;;12.60;25.10;;;;;;5034168;28;20166;-52
2023/01/19 12:38:42;;;;;;;7.15;5.00;;;13.20;26.10;;;;;;5034593;28;20455;-52
2023/01/19 12:41:21;;;;;;;8.15;4.85;;;14.00;26.00;;;;;;5034203;28;20685;-52
2023/01/19 12:44:06;;;;;;;5.80;4.18;;;15.00;24.00;;;;;;5034325;28;20587;-52
2023/01/19 12:46:32;;;;;;;5.50;4.20;;;15.70;20.80;;;;;;5033884;28;20644;-52
2023/01/19 12:49:13;;;;;;;6.10;4.23;;;16.00;22.00;;;;;;5033906;28;20189;-52
2023/01/19 12:51:40;;;;;;;5.28;4.68;;;16.60;21.10;;;;;;5034007;28;20206;-52
2023/01/19 12:54:07;;;;;;;6.45;4.15;;;17.00;21.00;;;;;;5034080;28;20166;-52
2023/01/19 12:56:36;;;;;;;5.22;4.45;;;17.20;20.00;;;;;;5033889;28;20541;-51
2023/01/19 12:59:03;;;;;;;7.15;4.05;;;17.00;20.40;;;;;;5033907;28;20170;-52
2023/01/19 13:01:29;;;;;;;4.93;4.38;;;17.30;20.80;;;;;;5033771;28;20174;-50
2023/01/19 13:04:31;;;;;;;9.10;4.25;;;17.90;21.70;;;;;;5033876;28;20178;-52
2023/01/19 13:06:59;;;;;;;7.97;5.05;;;18.50;20.70;;;;;;5033872;28;20181;-53
2023/01/19 13:09:35;;;;;;;5.00;3.95;;;18.90;20.20;;;;;;5033817;28;20677;-52